sensor_id;sensor_type;location;lat;lon;timestamp;pressure;altitude;pressure_sealevel;temperature;humidity
69402;BME280;56589;51.992;5.924;2022-10-16T00:01:43;100430.75;;;11.14;80.24
69402;BME280;56589;51.992;5.924;2022-10-16T00:04:09;100429.38;;;11.08;80.22
69402;BME280;56589;51.992;5.924;2022-10-16T00:06:35;100431.41;;;11.04;80.77
69402;BME280;56589;51.992;5.924;2022-10-16T00:09:04;100434.38;;;11.00;80.72
69402;BME280;56589;51.992;5.924;2022-10-16T00:11:32;100426.91;;;10.94;80.63
69402;BME280;56589;51.992;5.924;2022-10-16T00:14:00;100437.53;;;10.92;80.62
69402;BME280;56589;51.992;5.924;2022-10-16T00:16:28;100441.97;;;10.92;81.03
69402;BME280;56589;51.992;5.924;2022-10-16T00:18:54;100441.97;;;10.92;81.38
69402;BME280;56589;51.992;5.924;2022-10-16T00:21:23;100428.72;;;10.93;81.17
69402;BME280;56589;51.992;5.924;2022-10-16T00:23:54;100439.09;;;10.95;81.48
69402;BME280;56589;51.992;5.924;2022-10-16T00:26:24;100435.50;;;10.96;81.18
69402;BME280;56589;51.992;5.924;2022-10-16T00:28:51;100431.72;;;11.00;81.18
69402;BME280;56589;51.992;5.924;2022-10-16T00:31:19;100422.91;;;11.01;81.70
69402;BME280;56589;51.992;5.924;2022-10-16T00:33:46;100427.19;;;11.02;81.50
69402;BME280;56589;51.992;5.924;2022-10-16T00:36:16;100433.22;;;11.04;81.28
69402;BME280;56589;51.992;5.924;2022-10-16T00:38:43;100436.56;;;11.06;81.59
69402;BME280;56589;51.992;5.924;2022-10-16T00:41:11;100428.56;;;11.07;81.69
69402;BME280;56589;51.992;5.924;2022-10-16T00:43:42;100434.63;;;11.08;81.77
69402;BME280;56589;51.992;5.924;2022-10-16T00:46:14;100431.06;;;11.09;81.46
69402;BME280;56589;51.992;5.924;2022-10-16T00:48:45;100436.31;;;11.09;81.63
69402;BME280;56589;51.992;5.924;2022-10-16T00:51:14;100442.44;;;11.09;81.84
69402;BME280;56589;51.992;5.924;2022-10-16T00:53:40;100437.28;;;11.08;81.70
69402;BME280;56589;51.992;5.924;2022-10-16T00:56:06;100437.38;;;11.06;81.82
69402;BME280;56589;51.992;5.924;2022-10-16T00:58:32;100438.34;;;11.05;81.51
69402;BME280;56589;51.992;5.924;2022-10-16T01:01:01;100439.19;;;11.06;81.66
69402;BME280;56589;51.992;5.924;2022-10-16T01:03:29;100437.50;;;11.05;81.84
69402;BME280;56589;51.992;5.924;2022-10-16T01:09:02;100435.00;;;11.03;81.54
69402;BME280;56589;51.992;5.924;2022-10-16T01:11:42;100450.84;;;11.02;82.02
69402;BME280;56589;51.992;5.924;2022-10-16T01:14:22;100447.38;;;11.01;81.97
69402;BME280;56589;51.992;5.924;2022-10-16T01:16:58;100448.22;;;11.02;81.85
69402;BME280;56589;51.992;5.924;2022-10-16T01:19:50;100441.09;;;11.04;81.97
69402;BME280;56589;51.992;5.924;2022-10-16T01:22:43;100437.50;;;11.05;82.24
69402;BME280;56589;51.992;5.924;2022-10-16T01:25:29;100425.31;;;11.04;82.26
69402;BME280;56589;51.992;5.924;2022-10-16T01:28:11;100435.72;;;11.05;81.92
69402;BME280;56589;51.992;5.924;2022-10-16T01:30:42;100428.66;;;11.06;81.84
69402;BME280;56589;51.992;5.924;2022-10-16T01:33:14;100433.09;;;11.05;82.30
69402;BME280;56589;51.992;5.924;2022-10-16T01:35:48;100429.63;;;11.05;81.87
69402;BME280;56589;51.992;5.924;2022-10-16T01:38:19;100435.72;;;11.05;82.49
69402;BME280;56589;51.992;5.924;2022-10-16T01:40:54;100432.44;;;11.02;82.33
69402;BME280;56589;51.992;5.924;2022-10-16T01:43:30;100443.78;;;11.02;82.40
69402;BME280;56589;51.992;5.924;2022-10-16T01:46:01;100429.63;;;11.05;82.76
69402;BME280;56589;51.992;5.924;2022-10-16T01:48:29;100428.56;;;11.07;82.38
69402;BME280;56589;51.992;5.924;2022-10-16T01:51:01;100438.63;;;11.14;82.34
69402;BME280;56589;51.992;5.924;2022-10-16T01:53:30;100434.00;;;11.17;82.42
69402;BME280;56589;51.992;5.924;2022-10-16T01:55:58;100432.81;;;11.21;82.87
69402;BME280;56589;51.992;5.924;2022-10-16T01:58:30;100430.69;;;11.26;82.96
69402;BME280;56589;51.992;5.924;2022-10-16T02:01:03;100446.00;;;11.32;82.95
69402;BME280;56589;51.992;5.924;2022-10-16T02:03:35;100454.41;;;11.37;82.71
69402;BME280;56589;51.992;5.924;2022-10-16T02:06:06;100455.03;;;11.41;82.94
69402;BME280;56589;51.992;5.924;2022-10-16T02:08:33;100444.16;;;11.46;82.38
69402;BME280;56589;51.992;5.924;2022-10-16T02:11:00;100448.25;;;11.50;82.28
69402;BME280;56589;51.992;5.924;2022-10-16T02:13:33;100436.78;;;11.51;82.34
69402;BME280;56589;51.992;5.924;2022-10-16T02:16:04;100439.41;;;11.51;82.01
69402;BME280;56589;51.992;5.924;2022-10-16T02:18:31;100456.84;;;11.52;82.00
69402;BME280;56589;51.992;5.924;2022-10-16T02:21:00;100451.50;;;11.53;82.13
69402;BME280;56589;51.992;5.924;2022-10-16T02:23:36;100448.63;;;11.56;82.62
69402;BME280;56589;51.992;5.924;2022-10-16T02:26:14;100449.16;;;11.61;82.55
69402;BME280;56589;51.992;5.924;2022-10-16T02:28:54;100443.69;;;11.64;82.47
69402;BME280;56589;51.992;5.924;2022-10-16T02:31:28;100451.44;;;11.66;82.42
69402;BME280;56589;51.992;5.924;2022-10-16T02:33:58;100451.19;;;11.69;82.57
69402;BME280;56589;51.992;5.924;2022-10-16T02:36:27;100451.13;;;11.71;82.62
69402;BME280;56589;51.992;5.924;2022-10-16T02:38:53;100457.91;;;11.73;82.50
69402;BME280;56589;51.992;5.924;2022-10-16T02:41:21;100448.34;;;11.72;82.23
69402;BME280;56589;51.992;5.924;2022-10-16T02:43:51;100450.88;;;11.74;82.27
69402;BME280;56589;51.992;5.924;2022-10-16T02:46:17;100443.94;;;11.73;81.78
69402;BME280;56589;51.992;5.924;2022-10-16T02:48:43;100451.00;;;11.72;81.87
69402;BME280;56589;51.992;5.924;2022-10-16T02:51:09;100452.78;;;11.72;81.93
69402;BME280;56589;51.992;5.924;2022-10-16T02:53:35;100449.41;;;11.70;82.09
69402;BME280;56589;51.992;5.924;2022-10-16T02:56:00;100450.50;;;11.67;81.58
69402;BME280;56589;51.992;5.924;2022-10-16T02:58:26;100455.03;;;11.65;81.57
69402;BME280;56589;51.992;5.924;2022-10-16T03:00:55;100462.41;;;11.60;82.04
69402;BME280;56589;51.992;5.924;2022-10-16T03:03:22;100472.19;;;11.58;81.66
69402;BME280;56589;51.992;5.924;2022-10-16T03:05:48;100466.22;;;11.56;82.18
69402;BME280;56589;51.992;5.924;2022-10-16T03:08:14;100458.44;;;11.54;82.24
69402;BME280;56589;51.992;5.924;2022-10-16T03:10:40;100460.25;;;11.54;81.99
69402;BME280;56589;51.992;5.924;2022-10-16T03:13:05;100452.22;;;11.55;82.48
69402;BME280;56589;51.992;5.924;2022-10-16T03:15:34;100451.16;;;11.58;82.20
69402;BME280;56589;51.992;5.924;2022-10-16T03:18:02;100444.72;;;11.62;82.37
69402;BME280;56589;51.992;5.924;2022-10-16T03:20:28;100444.59;;;11.63;82.57
69402;BME280;56589;51.992;5.924;2022-10-16T03:22:54;100450.69;;;11.64;82.40
69402;BME280;56589;51.992;5.924;2022-10-16T03:25:21;100460.50;;;11.62;82.32
69402;BME280;56589;51.992;5.924;2022-10-16T03:27:47;100464.94;;;11.61;82.29
69402;BME280;56589;51.992;5.924;2022-10-16T03:30:13;100476.53;;;11.59;82.33
69402;BME280;56589;51.992;5.924;2022-10-16T03:32:38;100469.56;;;11.58;81.87
69402;BME280;56589;51.992;5.924;2022-10-16T03:35:07;100471.34;;;11.57;82.27
69402;BME280;56589;51.992;5.924;2022-10-16T03:37:33;100460.00;;;11.57;82.18
69402;BME280;56589;51.992;5.924;2022-10-16T03:39:59;100471.47;;;11.56;82.42
69402;BME280;56589;51.992;5.924;2022-10-16T03:42:25;100472.44;;;11.55;82.15
69402;BME280;56589;51.992;5.924;2022-10-16T03:44:50;100472.44;;;11.55;82.03
69402;BME280;56589;51.992;5.924;2022-10-16T03:47:16;100471.72;;;11.53;82.46
69402;BME280;56589;51.992;5.924;2022-10-16T03:49:42;100481.38;;;11.52;82.29
69402;BME280;56589;51.992;5.924;2022-10-16T03:52:10;100480.44;;;11.53;82.33
69402;BME280;56589;51.992;5.924;2022-10-16T03:54:36;100481.28;;;11.54;82.10
69402;BME280;56589;51.992;5.924;2022-10-16T03:57:02;100482.00;;;11.56;82.11
69402;BME280;56589;51.992;5.924;2022-10-16T03:59:28;100477.56;;;11.56;82.40
69402;BME280;56589;51.992;5.924;2022-10-16T04:01:53;100464.41;;;11.56;82.19
69402;BME280;56589;51.992;5.924;2022-10-16T04:04:19;100475.88;;;11.55;82.10
69402;BME280;56589;51.992;5.924;2022-10-16T04:06:45;100480.44;;;11.53;82.15
69402;BME280;56589;51.992;5.924;2022-10-16T04:09:13;100484.09;;;11.51;82.21
69402;BME280;56589;51.992;5.924;2022-10-16T04:11:39;100486.84;;;11.49;82.04
69402;BME280;56589;51.992;5.924;2022-10-16T04:14:05;100493.91;;;11.49;82.46
69402;BME280;56589;51.992;5.924;2022-10-16T04:16:30;100489.59;;;11.48;82.15
69402;BME280;56589;51.992;5.924;2022-10-16T04:18:56;100497.25;;;11.51;82.52
69402;BME280;56589;51.992;5.924;2022-10-16T04:21:22;100501.34;;;11.55;82.33
69402;BME280;56589;51.992;5.924;2022-10-16T04:23:48;100510.78;;;11.57;82.47
69402;BME280;56589;51.992;5.924;2022-10-16T04:26:16;100518.34;;;11.62;82.72
69402;BME280;56589;51.992;5.924;2022-10-16T04:28:42;100521.63;;;11.66;82.45
69402;BME280;56589;51.992;5.924;2022-10-16T04:31:08;100516.22;;;11.67;82.34
69402;BME280;56589;51.992;5.924;2022-10-16T04:33:34;100525.78;;;11.68;82.62
69402;BME280;56589;51.992;5.924;2022-10-16T04:36:01;100527.38;;;11.71;82.37
69402;BME280;56589;51.992;5.924;2022-10-16T04:38:28;100530.72;;;11.73;82.30
69402;BME280;56589;51.992;5.924;2022-10-16T04:40:55;100528.81;;;11.75;82.32
69402;BME280;56589;51.992;5.924;2022-10-16T04:43:23;100533.97;;;11.76;82.37
69402;BME280;56589;51.992;5.924;2022-10-16T04:45:51;100537.47;;;11.77;82.20
69402;BME280;56589;51.992;5.924;2022-10-16T04:48:16;100543.63;;;11.76;82.08
69402;BME280;56589;51.992;5.924;2022-10-16T04:50:42;100536.72;;;11.75;82.27
69402;BME280;56589;51.992;5.924;2022-10-16T04:53:08;100530.72;;;11.73;81.67
69402;BME280;56589;51.992;5.924;2022-10-16T04:55:34;100541.38;;;11.71;81.92
69402;BME280;56589;51.992;5.924;2022-10-16T04:57:59;100543.38;;;11.68;81.64
69402;BME280;56589;51.992;5.924;2022-10-16T05:00:28;100548.75;;;11.66;82.21
69402;BME280;56589;51.992;5.924;2022-10-16T05:02:56;100553.38;;;11.62;81.88
69402;BME280;56589;51.992;5.924;2022-10-16T05:05:22;100554.22;;;11.63;82.15
69402;BME280;56589;51.992;5.924;2022-10-16T05:07:48;100562.00;;;11.64;82.26
69402;BME280;56589;51.992;5.924;2022-10-16T05:10:14;100554.00;;;11.66;82.34
69402;BME280;56589;51.992;5.924;2022-10-16T05:12:39;100557.47;;;11.67;82.38
69402;BME280;56589;51.992;5.924;2022-10-16T05:15:06;100557.59;;;11.65;81.83
69402;BME280;56589;51.992;5.924;2022-10-16T05:17:36;100561.25;;;11.62;81.88
69402;BME280;56589;51.992;5.924;2022-10-16T05:20:04;100565.91;;;11.59;81.98
69402;BME280;56589;51.992;5.924;2022-10-16T05:22:30;100573.28;;;11.54;81.68
69402;BME280;56589;51.992;5.924;2022-10-16T05:24:56;100582.34;;;11.50;81.76
69402;BME280;56589;51.992;5.924;2022-10-16T05:27:22;100580.03;;;11.45;82.04
69402;BME280;56589;51.992;5.924;2022-10-16T05:29:48;100581.09;;;11.43;81.80
69402;BME280;56589;51.992;5.924;2022-10-16T05:32:15;100575.22;;;11.39;82.17
69402;BME280;56589;51.992;5.924;2022-10-16T05:34:45;100592.03;;;11.36;82.23
69402;BME280;56589;51.992;5.924;2022-10-16T05:37:11;100590.56;;;11.32;82.05
69402;BME280;56589;51.992;5.924;2022-10-16T05:39:38;100589.00;;;11.30;82.18
69402;BME280;56589;51.992;5.924;2022-10-16T05:42:06;100599.72;;;11.27;82.48
69402;BME280;56589;51.992;5.924;2022-10-16T05:44:32;100606.16;;;11.23;82.29
69402;BME280;56589;51.992;5.924;2022-10-16T05:47:01;100606.25;;;11.21;82.50
69402;BME280;56589;51.992;5.924;2022-10-16T05:49:27;100610.78;;;11.19;82.64
69402;BME280;56589;51.992;5.924;2022-10-16T05:51:55;100617.09;;;11.17;82.44
69402;BME280;56589;51.992;5.924;2022-10-16T05:54:23;100623.50;;;11.13;82.38
69402;BME280;56589;51.992;5.924;2022-10-16T05:56:49;100626.25;;;11.11;82.70
69402;BME280;56589;51.992;5.924;2022-10-16T05:59:15;100628.97;;;11.09;82.88
69402;BME280;56589;51.992;5.924;2022-10-16T06:01:40;100627.28;;;11.08;82.39
69402;BME280;56589;51.992;5.924;2022-10-16T06:04:07;100637.06;;;11.06;82.96
69402;BME280;56589;51.992;5.924;2022-10-16T06:06:33;100638.13;;;11.04;82.64
69402;BME280;56589;51.992;5.924;2022-10-16T06:09:02;100651.25;;;11.04;82.76
69402;BME280;56589;51.992;5.924;2022-10-16T06:11:30;100648.81;;;11.01;83.20
69402;BME280;56589;51.992;5.924;2022-10-16T06:13:59;100648.81;;;11.01;82.70
69402;BME280;56589;51.992;5.924;2022-10-16T06:16:26;100659.44;;;10.99;83.14
69402;BME280;56589;51.992;5.924;2022-10-16T06:18:53;100662.06;;;10.99;83.06
69402;BME280;56589;51.992;5.924;2022-10-16T06:21:23;100657.53;;;11.01;83.03
69402;BME280;56589;51.992;5.924;2022-10-16T06:23:50;100651.25;;;11.04;83.01
69402;BME280;56589;51.992;5.924;2022-10-16T06:26:20;100660.59;;;11.08;83.48
69402;BME280;56589;51.992;5.924;2022-10-16T06:28:48;100661.97;;;11.14;83.55
69402;BME280;56589;51.992;5.924;2022-10-16T06:31:15;100659.75;;;11.20;83.44
69402;BME280;56589;51.992;5.924;2022-10-16T06:33:42;100662.81;;;11.27;83.68
69402;BME280;56589;51.992;5.924;2022-10-16T06:36:11;100664.16;;;11.32;83.53
69402;BME280;56589;51.992;5.924;2022-10-16T06:38:40;100668.16;;;11.38;83.84
69402;BME280;56589;51.992;5.924;2022-10-16T06:41:10;100665.00;;;11.46;83.66
69402;BME280;56589;51.992;5.924;2022-10-16T06:43:42;100679.41;;;11.53;83.42
69402;BME280;56589;51.992;5.924;2022-10-16T06:46:10;100677.09;;;11.61;83.51
69402;BME280;56589;51.992;5.924;2022-10-16T06:48:38;100690.66;;;11.68;83.57
69402;BME280;56589;51.992;5.924;2022-10-16T06:51:06;100698.81;;;11.76;83.44
69402;BME280;56589;51.992;5.924;2022-10-16T06:53:37;100698.41;;;11.82;83.31
69402;BME280;56589;51.992;5.924;2022-10-16T06:56:09;100706.94;;;11.85;83.47
69402;BME280;56589;51.992;5.924;2022-10-16T06:58:37;100704.69;;;11.92;83.18
69402;BME280;56589;51.992;5.924;2022-10-16T07:01:06;100713.94;;;11.98;83.18
69402;BME280;56589;51.992;5.924;2022-10-16T07:03:33;100716.97;;;12.04;83.39
69402;BME280;56589;51.992;5.924;2022-10-16T07:06:01;100725.28;;;12.11;82.76
69402;BME280;56589;51.992;5.924;2022-10-16T07:08:27;100722.44;;;12.14;82.80
69402;BME280;56589;51.992;5.924;2022-10-16T07:10:58;100732.72;;;12.17;82.46
69402;BME280;56589;51.992;5.924;2022-10-16T07:13:24;100727.28;;;12.20;82.58
69402;BME280;56589;51.992;5.924;2022-10-16T07:15:50;100737.38;;;12.26;82.65
69402;BME280;56589;51.992;5.924;2022-10-16T07:18:18;100740.50;;;12.31;82.57
69402;BME280;56589;51.992;5.924;2022-10-16T07:20:44;100741.97;;;12.35;82.62
69402;BME280;56589;51.992;5.924;2022-10-16T07:23:10;100751.34;;;12.39;82.71
69402;BME280;56589;51.992;5.924;2022-10-16T07:25:36;100754.50;;;12.44;82.71
69402;BME280;56589;51.992;5.924;2022-10-16T07:28:01;100754.06;;;12.51;82.23
69402;BME280;56589;51.992;5.924;2022-10-16T07:30:29;100766.78;;;12.57;82.14
69402;BME280;56589;51.992;5.924;2022-10-16T07:32:55;100781.38;;;12.61;82.14
69402;BME280;56589;51.992;5.924;2022-10-16T07:35:23;100782.00;;;12.64;82.00
69402;BME280;56589;51.992;5.924;2022-10-16T07:37:49;100793.16;;;12.68;81.68
69402;BME280;56589;51.992;5.924;2022-10-16T07:40:14;100796.09;;;12.76;81.83
69402;BME280;56589;51.992;5.924;2022-10-16T07:42:42;100803.19;;;12.87;81.71
69402;BME280;56589;51.992;5.924;2022-10-16T07:45:08;100800.00;;;12.94;81.78
69402;BME280;56589;51.992;5.924;2022-10-16T07:47:34;100808.19;;;13.03;81.80
69402;BME280;56589;51.992;5.924;2022-10-16T07:50:00;100798.03;;;13.09;81.24
69402;BME280;56589;51.992;5.924;2022-10-16T07:52:28;100807.38;;;13.13;80.89
69402;BME280;56589;51.992;5.924;2022-10-16T07:54:54;100801.03;;;13.16;81.23
69402;BME280;56589;51.992;5.924;2022-10-16T07:57:20;100808.50;;;13.22;80.82
69402;BME280;56589;51.992;5.924;2022-10-16T07:59:46;100802.63;;;13.30;81.17
69402;BME280;56589;51.992;5.924;2022-10-16T08:02:12;100808.78;;;13.41;81.03
69402;BME280;56589;51.992;5.924;2022-10-16T08:04:37;100825.50;;;13.53;80.47
69402;BME280;56589;51.992;5.924;2022-10-16T08:07:03;100817.97;;;13.60;80.34
69402;BME280;56589;51.992;5.924;2022-10-16T08:09:31;100820.03;;;13.67;80.04
69402;BME280;56589;51.992;5.924;2022-10-16T08:11:57;100828.78;;;13.79;80.61
69402;BME280;56589;51.992;5.924;2022-10-16T08:14:23;100825.13;;;13.93;79.82
69402;BME280;56589;51.992;5.924;2022-10-16T08:16:49;100823.31;;;14.04;79.45
69402;BME280;56589;51.992;5.924;2022-10-16T08:19:14;100827.28;;;14.10;79.37
69402;BME280;56589;51.992;5.924;2022-10-16T08:21:40;100835.44;;;14.18;79.44
69402;BME280;56589;51.992;5.924;2022-10-16T08:24:06;100838.09;;;14.29;79.04
69402;BME280;56589;51.992;5.924;2022-10-16T08:26:34;100836.84;;;14.45;78.82
69402;BME280;56589;51.992;5.924;2022-10-16T08:29:00;100832.66;;;14.53;78.33
69402;BME280;56589;51.992;5.924;2022-10-16T08:31:26;100850.66;;;14.59;78.07
69402;BME280;56589;51.992;5.924;2022-10-16T08:33:52;100852.84;;;14.66;78.30
69402;BME280;56589;51.992;5.924;2022-10-16T08:36:18;100855.22;;;14.69;77.36
69402;BME280;56589;51.992;5.924;2022-10-16T08:38:43;100854.38;;;14.68;76.70
69402;BME280;56589;51.992;5.924;2022-10-16T08:41:23;100860.88;;;14.64;77.35
69402;BME280;56589;51.992;5.924;2022-10-16T08:47:19;100872.50;;;14.50;76.35
69402;BME280;56589;51.992;5.924;2022-10-16T08:49:56;100872.78;;;14.47;76.43
69402;BME280;56589;51.992;5.924;2022-10-16T08:52:25;100867.72;;;14.44;76.55
69402;BME280;56589;51.992;5.924;2022-10-16T08:54:58;100860.63;;;14.45;76.88
69402;BME280;56589;51.992;5.924;2022-10-16T08:57:25;100877.31;;;14.45;76.64
69402;BME280;56589;51.992;5.924;2022-10-16T08:59:57;100883.56;;;14.44;76.08
69402;BME280;56589;51.992;5.924;2022-10-16T09:02:31;100893.06;;;14.47;76.44
69402;BME280;56589;51.992;5.924;2022-10-16T09:05:17;100897.25;;;14.49;75.79
69402;BME280;56589;51.992;5.924;2022-10-16T09:08:03;100891.13;;;14.49;76.24
69402;BME280;56589;51.992;5.924;2022-10-16T09:10:49;100901.22;;;14.55;76.27
69402;BME280;56589;51.992;5.924;2022-10-16T09:13:27;100897.50;;;14.57;75.53
69402;BME280;56589;51.992;5.924;2022-10-16T09:16:04;100911.44;;;14.59;75.81
69402;BME280;56589;51.992;5.924;2022-10-16T09:18:45;100906.16;;;14.59;75.69
69402;BME280;56589;51.992;5.924;2022-10-16T09:21:22;100906.88;;;14.62;74.97
69402;BME280;56589;51.992;5.924;2022-10-16T09:23:52;100906.03;;;14.61;75.04
69402;BME280;56589;51.992;5.924;2022-10-16T09:26:20;100915.75;;;14.61;74.61
69402;BME280;56589;51.992;5.924;2022-10-16T09:28:46;100920.94;;;14.62;74.75
69402;BME280;56589;51.992;5.924;2022-10-16T09:31:20;100913.94;;;14.61;74.60
69402;BME280;56589;51.992;5.924;2022-10-16T09:33:50;100912.06;;;14.63;74.64
69402;BME280;56589;51.992;5.924;2022-10-16T09:36:20;100920.81;;;14.64;73.68
69402;BME280;56589;51.992;5.924;2022-10-16T09:38:47;100922.50;;;14.65;74.82
69402;BME280;56589;51.992;5.924;2022-10-16T09:41:16;100929.00;;;14.72;74.30
69402;BME280;56589;51.992;5.924;2022-10-16T09:43:49;100935.22;;;14.82;74.55
69402;BME280;56589;51.992;5.924;2022-10-16T09:46:25;100937.38;;;14.88;74.04
69402;BME280;56589;51.992;5.924;2022-10-16T09:48:55;100942.66;;;14.88;73.79
69402;BME280;56589;51.992;5.924;2022-10-16T09:51:24;100942.31;;;14.93;74.05
69402;BME280;56589;51.992;5.924;2022-10-16T09:53:56;100947.34;;;14.96;73.91
69402;BME280;56589;51.992;5.924;2022-10-16T09:56:25;100942.41;;;15.02;74.12
69402;BME280;56589;51.992;5.924;2022-10-16T09:59:08;100945.28;;;15.10;74.04
69402;BME280;56589;51.992;5.924;2022-10-16T10:01:39;100955.00;;;15.21;73.64
69402;BME280;56589;51.992;5.924;2022-10-16T10:04:08;100951.38;;;15.33;73.28
69402;BME280;56589;51.992;5.924;2022-10-16T10:06:40;100958.53;;;15.43;73.10
69402;BME280;56589;51.992;5.924;2022-10-16T10:09:17;100958.38;;;15.55;73.37
69402;BME280;56589;51.992;5.924;2022-10-16T10:11:51;100956.53;;;15.67;72.50
69402;BME280;56589;51.992;5.924;2022-10-16T10:14:23;100954.00;;;15.77;72.41
69402;BME280;56589;51.992;5.924;2022-10-16T10:17:10;100967.03;;;15.89;72.13
69402;BME280;56589;51.992;5.924;2022-10-16T10:19:39;100958.00;;;15.92;71.70
69402;BME280;56589;51.992;5.924;2022-10-16T10:22:29;100950.13;;;16.02;71.58
69402;BME280;56589;51.992;5.924;2022-10-16T10:28:15;100959.88;;;16.22;70.89
69402;BME280;56589;51.992;5.924;2022-10-16T10:30:56;100965.75;;;16.26;70.09
69402;BME280;56589;51.992;5.924;2022-10-16T10:33:41;100972.75;;;16.36;70.39
69402;BME280;56589;51.992;5.924;2022-10-16T10:36:21;100978.72;;;16.50;69.87
69402;BME280;56589;51.992;5.924;2022-10-16T10:38:57;100973.19;;;16.62;69.81
69402;BME280;56589;51.992;5.924;2022-10-16T10:44:53;100976.41;;;16.87;68.87
69402;BME280;56589;51.992;5.924;2022-10-16T10:47:31;100976.84;;;17.02;69.01
69402;BME280;56589;51.992;5.924;2022-10-16T10:50:19;100975.22;;;17.20;67.58
69402;BME280;56589;51.992;5.924;2022-10-16T10:52:56;100970.63;;;17.32;67.59
69402;BME280;56589;51.992;5.924;2022-10-16T10:55:33;100982.13;;;17.42;66.65
69402;BME280;56589;51.992;5.924;2022-10-16T10:58:24;100983.34;;;17.47;66.38
69402;BME280;56589;51.992;5.924;2022-10-16T11:01:20;100996.06;;;17.53;66.32
69402;BME280;56589;51.992;5.924;2022-10-16T11:04:07;100991.19;;;17.59;64.84
69402;BME280;56589;51.992;5.924;2022-10-16T11:06:52;100991.91;;;17.51;65.21
69402;BME280;56589;51.992;5.924;2022-10-16T11:09:25;100991.47;;;17.46;65.37
69402;BME280;56589;51.992;5.924;2022-10-16T11:11:56;100994.16;;;17.56;63.66
69402;BME280;56589;51.992;5.924;2022-10-16T11:14:33;100991.41;;;17.67;65.43
69402;BME280;56589;51.992;5.924;2022-10-16T11:17:10;100989.84;;;17.84;64.65
69402;BME280;56589;51.992;5.924;2022-10-16T11:19:43;100994.75;;;17.98;63.42
69402;BME280;56589;51.992;5.924;2022-10-16T11:22:19;101003.81;;;18.05;62.82
69402;BME280;56589;51.992;5.924;2022-10-16T11:24:55;101005.22;;;18.09;62.87
69402;BME280;56589;51.992;5.924;2022-10-16T11:27:34;101009.25;;;18.13;62.90
69402;BME280;56589;51.992;5.924;2022-10-16T11:30:11;101012.19;;;18.20;62.13
69402;BME280;56589;51.992;5.924;2022-10-16T11:32:49;101016.53;;;18.11;61.91
69402;BME280;56589;51.992;5.924;2022-10-16T11:35:25;101024.09;;;17.96;61.85
69402;BME280;56589;51.992;5.924;2022-10-16T11:38:10;101019.66;;;17.97;61.88
69402;BME280;56589;51.992;5.924;2022-10-16T11:40:43;101021.59;;;18.04;61.61
69402;BME280;56589;51.992;5.924;2022-10-16T11:43:19;101013.59;;;18.14;61.75
69402;BME280;56589;51.992;5.924;2022-10-16T11:45:53;101012.03;;;18.31;61.35
69402;BME280;56589;51.992;5.924;2022-10-16T11:48:27;101015.66;;;18.40;61.00
69402;BME280;56589;51.992;5.924;2022-10-16T11:51:05;101014.53;;;18.52;61.33
69402;BME280;56589;51.992;5.924;2022-10-16T11:53:46;101020.09;;;18.68;60.10
69402;BME280;56589;51.992;5.924;2022-10-16T11:56:20;101016.94;;;18.82;60.31
69402;BME280;56589;51.992;5.924;2022-10-16T11:58:55;101025.72;;;18.93;59.55
69402;BME280;56589;51.992;5.924;2022-10-16T12:01:30;101030.56;;;19.07;59.52
69402;BME280;56589;51.992;5.924;2022-10-16T12:04:12;101032.94;;;19.10;58.14
69402;BME280;56589;51.992;5.924;2022-10-16T12:06:48;101029.03;;;19.04;54.47
69402;BME280;56589;51.992;5.924;2022-10-16T12:09:25;101035.97;;;18.88;56.87
69402;BME280;56589;51.992;5.924;2022-10-16T12:11:54;101043.75;;;18.71;57.61
69402;BME280;56589;51.992;5.924;2022-10-16T12:14:33;101036.34;;;18.55;57.29
69402;BME280;56589;51.992;5.924;2022-10-16T12:17:04;101032.03;;;18.35;57.48
69402;BME280;56589;51.992;5.924;2022-10-16T12:19:58;101040.88;;;18.16;58.06
69402;BME280;56589;51.992;5.924;2022-10-16T12:22:28;101045.47;;;18.14;58.03
69402;BME280;56589;51.992;5.924;2022-10-16T12:24:59;101042.41;;;18.19;58.24
69402;BME280;56589;51.992;5.924;2022-10-16T12:27:29;101041.41;;;18.20;58.60
69402;BME280;56589;51.992;5.924;2022-10-16T12:29:57;101033.88;;;18.25;58.65
69402;BME280;56589;51.992;5.924;2022-10-16T12:32:33;101036.09;;;18.29;57.92
69402;BME280;56589;51.992;5.924;2022-10-16T12:35:02;101044.34;;;18.36;57.99
69402;BME280;56589;51.992;5.924;2022-10-16T12:37:33;101039.16;;;18.44;58.13
69402;BME280;56589;51.992;5.924;2022-10-16T12:40:12;101035.22;;;18.58;57.06
69402;BME280;56589;51.992;5.924;2022-10-16T12:42:40;101052.84;;;18.69;57.54
69402;BME280;56589;51.992;5.924;2022-10-16T12:45:24;101048.03;;;18.82;56.52
69402;BME280;56589;51.992;5.924;2022-10-16T12:47:56;101043.69;;;18.91;57.38
69402;BME280;56589;51.992;5.924;2022-10-16T12:50:27;101053.03;;;18.95;56.54
69402;BME280;56589;51.992;5.924;2022-10-16T12:52:56;101054.84;;;18.94;56.38
69402;BME280;56589;51.992;5.924;2022-10-16T12:55:35;101054.84;;;18.94;56.12
69402;BME280;56589;51.992;5.924;2022-10-16T12:58:27;101057.72;;;18.83;55.66
69402;BME280;56589;51.992;5.924;2022-10-16T13:01:19;101064.88;;;18.73;56.42
69402;BME280;56589;51.992;5.924;2022-10-16T13:04:06;101053.94;;;18.76;56.32
69402;BME280;56589;51.992;5.924;2022-10-16T13:06:52;101054.91;;;18.84;56.59
69402;BME280;56589;51.992;5.924;2022-10-16T13:09:39;101058.50;;;18.93;55.31
69402;BME280;56589;51.992;5.924;2022-10-16T13:12:39;101052.91;;;18.96;55.88
69402;BME280;56589;51.992;5.924;2022-10-16T13:15:47;101053.59;;;18.98;55.07
69402;BME280;56589;51.992;5.924;2022-10-16T13:18:26;101053.03;;;18.95;55.19
69402;BME280;56589;51.992;5.924;2022-10-16T13:21:18;101055.00;;;18.93;54.17
69402;BME280;56589;51.992;5.924;2022-10-16T13:24:02;101063.13;;;18.91;55.02